»·PEaware :: GDS55 KPSP-KSAC

GDS55 :: KPSP-KSAC

FLIGHT INFORMATION

Flight Status: Arrived
Operator: Unknown
More flights by this operator :: More flights under this callsign
Pilot: Gabor H. (24209)
Aircraft: Unknown
(PC24)
More flights by this aircraft type
Origin: KPSP Palm Springs Intl
United States
Destination: KSAC Sacramento Executive
United States
More flights between these airports :: More routes between these airports
Route: PSP V386 PMD LANDO CZQ LIN
File this flight plan on PilotEdge
Remarks:
Altitude:
(Current/Filed)
40,000ft
Speed:
(Current/Filed)
460kts
Departed: 25-Apr-19 03:33 PM
Arrived: 25-Apr-19 04:40 PM
Distance/Time
Traveled:
371nm/1:06
Distance/Time
To Go:
Arrived

Flight Plot

Page will automatically refresh every two minutes.

Flight plan parsing failed; only flown route is shown


Map Options




Map Legend


Flown Route
Filed Route
Departure Airport
Arrival Airport
Navaid (VOR, NDB)
Fix

Horizontal Profiles

Position Reports

Time Latitude Longitude Heading Altitude Ground
Speed
25-Apr-19 14:58 33.824089 -116.498273 53 482ft 0kts
25-Apr-19 14:59 33.824089 -116.498273 53 482ft 0kts
25-Apr-19 15:00 33.824089 -116.498273 53 482ft 0kts
25-Apr-19 15:01 33.824089 -116.498273 53 482ft 0kts
25-Apr-19 15:03 33.824089 -116.498273 53 482ft 0kts
25-Apr-19 15:04 33.824089 -116.498273 53 482ft 0kts
25-Apr-19 15:05 33.824089 -116.498273 53 482ft 0kts
25-Apr-19 15:06 33.824089 -116.498273 53 482ft 0kts
25-Apr-19 15:07 33.824089 -116.498273 53 482ft 0kts
25-Apr-19 15:08 33.824089 -116.498273 53 482ft 0kts
25-Apr-19 15:09 33.824089 -116.498273 53 482ft 0kts
25-Apr-19 15:10 33.824089 -116.498273 53 482ft 0kts
25-Apr-19 15:11 33.824089 -116.498273 53 482ft 0kts
25-Apr-19 15:12 33.824089 -116.498273 53 482ft 0kts
25-Apr-19 15:13 33.824089 -116.498273 53 482ft 0kts
25-Apr-19 15:14 33.824089 -116.498273 53 482ft 0kts
25-Apr-19 15:15 33.824089 -116.498273 53 482ft 0kts
25-Apr-19 15:16 33.824089 -116.498273 53 482ft 0kts
25-Apr-19 15:17 33.824089 -116.498273 53 482ft 0kts
25-Apr-19 15:18 33.824089 -116.498273 53 482ft 0kts
25-Apr-19 15:19 33.824089 -116.498273 53 482ft 0kts
25-Apr-19 15:20 33.824089 -116.498273 53 482ft 0kts
25-Apr-19 15:21 33.824089 -116.498273 53 482ft 0kts
25-Apr-19 15:21 33.824089 -116.498273 53 482ft 0kts
25-Apr-19 15:23 33.824089 -116.498273 53 482ft 0kts
25-Apr-19 15:24 33.824089 -116.498273 53 482ft 0kts
25-Apr-19 15:24 33.824091 -116.498270 53 482ft 0kts
25-Apr-19 15:25 33.824092 -116.498267 53 482ft 0kts
25-Apr-19 15:27 33.824095 -116.498263 53 482ft 0kts
25-Apr-19 15:27 33.824096 -116.498261 53 482ft 0kts
25-Apr-19 15:28 33.822598 -116.496738 179 482ft 16kts
25-Apr-19 15:29 33.819938 -116.495931 233 482ft 12kts
25-Apr-19 15:30 33.819215 -116.497071 233 482ft 0kts
25-Apr-19 15:31 33.819212 -116.497077 233 482ft 0kts
25-Apr-19 15:32 33.827828 -116.506038 323 573ft 167kts
25-Apr-19 15:33 33.866639 -116.542720 321 3552ft 183kts
25-Apr-19 15:34 33.903593 -116.524061 96 6590ft 198kts
25-Apr-19 15:35 33.883657 -116.463280 118 9608ft 199kts
25-Apr-19 15:36 33.858314 -116.401274 117 12164ft 216kts
25-Apr-19 15:37 33.829769 -116.332234 117 12998ft 239kts
25-Apr-19 15:38 33.813909 -116.258709 61 13548ft 239kts
25-Apr-19 15:39 33.870120 -116.261158 304 15263ft 247kts
25-Apr-19 15:40 33.911567 -116.351636 296 18273ft 375kts
25-Apr-19 15:41 33.960891 -116.468777 296 21643ft 406kts
25-Apr-19 15:42 34.013350 -116.593654 296 22949ft 426kts
25-Apr-19 15:43 34.067352 -116.722372 296 22983ft 433kts
25-Apr-19 15:44 34.121776 -116.851887 296 24212ft 432kts
25-Apr-19 15:45 34.177024 -116.983185 295 28222ft 447kts
25-Apr-19 15:46 34.233928 -117.118561 294 32234ft 455kts
25-Apr-19 15:47 34.292227 -117.257344 294 36220ft 468kts
25-Apr-19 15:48 34.349993 -117.394543 293 40155ft 448kts
25-Apr-19 15:49 34.406133 -117.528968 293 40136ft 444kts
25-Apr-19 15:50 34.461844 -117.662409 294 40133ft 441kts
25-Apr-19 15:51 34.517451 -117.794618 294 40138ft 440kts
25-Apr-19 15:52 34.573175 -117.926544 294 40133ft 439kts
25-Apr-19 15:53 34.620641 -118.037860 295 40137ft 442kts
25-Apr-19 15:54 34.665798 -118.119014 304 40141ft 448kts
25-Apr-19 15:55 34.746440 -118.235323 307 40131ft 451kts
25-Apr-19 15:56 34.828449 -118.350629 307 40150ft 450kts
25-Apr-19 15:57 34.909466 -118.466737 306 40196ft 449kts
25-Apr-19 15:58 34.989809 -118.583176 308 40226ft 450kts
25-Apr-19 15:59 35.093453 -118.671937 327 40222ft 459kts
25-Apr-19 16:00 35.202838 -118.740250 329 40185ft 459kts
25-Apr-19 16:01 35.316972 -118.809834 329 40019ft 458kts
25-Apr-19 16:02 35.427118 -118.877969 329 39968ft 457kts
25-Apr-19 16:03 35.540725 -118.949136 328 39949ft 457kts
25-Apr-19 16:04 35.653584 -119.020407 328 39946ft 456kts
25-Apr-19 16:05 35.766230 -119.091928 328 39937ft 456kts
25-Apr-19 16:06 35.878774 -119.163680 328 39940ft 455kts
25-Apr-19 16:07 35.991193 -119.235607 328 39950ft 455kts
25-Apr-19 16:08 36.103719 -119.307844 328 39958ft 453kts
25-Apr-19 16:09 36.215405 -119.379771 328 39954ft 452kts
25-Apr-19 16:10 36.326923 -119.451825 328 39950ft 452kts
25-Apr-19 16:11 36.438384 -119.524078 328 39203ft 451kts
25-Apr-19 16:12 36.549574 -119.596369 328 37211ft 448kts
25-Apr-19 16:13 36.660055 -119.668497 329 35221ft 452kts
25-Apr-19 16:14 36.772917 -119.742433 329 33221ft 461kts
25-Apr-19 16:15 36.885521 -119.819744 324 31227ft 464kts
25-Apr-19 16:16 36.989332 -119.915682 319 29233ft 467kts
25-Apr-19 16:17 37.090126 -120.016062 319 27254ft 465kts
25-Apr-19 16:18 37.190805 -120.116670 319 25248ft 457kts
25-Apr-19 16:19 37.289217 -120.214764 320 23249ft 446kts
25-Apr-19 16:20 37.385187 -120.310329 320 21253ft 434kts
25-Apr-19 16:21 37.478451 -120.403317 320 19461ft 422kts
25-Apr-19 16:22 37.569271 -120.494103 320 17067ft 408kts
25-Apr-19 16:23 37.656901 -120.581970 320 14720ft 396kts
25-Apr-19 16:24 37.742045 -120.667593 320 13008ft 387kts
25-Apr-19 16:25 37.823373 -120.749524 320 11520ft 357kts
25-Apr-19 16:26 37.896333 -120.823099 320 10149ft 304kts
25-Apr-19 16:27 37.959296 -120.886701 320 10030ft 289kts
25-Apr-19 16:28 38.021634 -120.949990 320 8739ft 286kts
25-Apr-19 16:29 38.082257 -121.013252 318 7290ft 279kts
25-Apr-19 16:30 38.140566 -121.077406 318 6309ft 277kts
25-Apr-19 16:31 38.197711 -121.140888 317 6018ft 272kts
25-Apr-19 16:32 38.253938 -121.203540 317 6012ft 267kts
25-Apr-19 16:33 38.310299 -121.266521 317 5641ft 269kts
25-Apr-19 16:34 38.365433 -121.326348 322 4648ft 257kts
25-Apr-19 16:35 38.421911 -121.372438 328 3683ft 214kts
25-Apr-19 16:36 38.464232 -121.421059 310 1836ft 185kts
25-Apr-19 16:37 38.493076 -121.459864 309 919ft 134kts
25-Apr-19 16:38 38.515253 -121.490919 314 29ft 58kts
25-Apr-19 16:39 38.514882 -121.494446 213 29ft 19kts
25-Apr-19 16:40 38.514389 -121.497798 308 29ft 11kts
25-Apr-19 16:41 38.515114 -121.499262 225 29ft 0kts
25-Apr-19 16:42 38.515114 -121.499262 225 29ft 0kts
25-Apr-19 16:43 38.515114 -121.499262 225 29ft 0kts

Navigation Log

Ident Type
Flight plan parsing failed, navigation log unavailable